sensor_id;sensor_type;location;lat;lon;timestamp;P1;durP1;ratioP1;P2;durP2;ratioP2
55483;SDS011;41345;51.704;5.146;2023-06-22T00:03:22;197.85;;;189.05;;
55483;SDS011;41345;51.704;5.146;2023-06-22T00:08:24;146.65;;;139.48;;
55483;SDS011;41345;51.704;5.146;2023-06-22T00:13:24;177.60;;;169.10;;
55483;SDS011;41345;51.704;5.146;2023-06-22T00:18:24;202.02;;;192.55;;
55483;SDS011;41345;51.704;5.146;2023-06-22T00:23:27;205.68;;;195.98;;
55483;SDS011;41345;51.704;5.146;2023-06-22T00:28:28;164.70;;;156.93;;
55483;SDS011;41345;51.704;5.146;2023-06-22T00:33:29;241.23;;;230.52;;
55483;SDS011;41345;51.704;5.146;2023-06-22T00:38:29;231.70;;;220.93;;
55483;SDS011;41345;51.704;5.146;2023-06-22T00:43:29;159.85;;;152.00;;
55483;SDS011;41345;51.704;5.146;2023-06-22T00:48:30;177.68;;;169.05;;
55483;SDS011;41345;51.704;5.146;2023-06-22T00:53:30;249.13;;;237.57;;
55483;SDS011;41345;51.704;5.146;2023-06-22T00:58:35;220.43;;;210.23;;
55483;SDS011;41345;51.704;5.146;2023-06-22T01:03:36;198.57;;;189.07;;
55483;SDS011;41345;51.704;5.146;2023-06-22T01:08:46;274.30;;;262.05;;
55483;SDS011;41345;51.704;5.146;2023-06-22T01:18:54;304.77;;;291.17;;
55483;SDS011;41345;51.704;5.146;2023-06-22T01:28:59;309.35;;;294.52;;
55483;SDS011;41345;51.704;5.146;2023-06-22T01:34:00;304.70;;;290.63;;
55483;SDS011;41345;51.704;5.146;2023-06-22T01:39:02;248.25;;;236.40;;
55483;SDS011;41345;51.704;5.146;2023-06-22T01:44:06;274.60;;;261.38;;
55483;SDS011;41345;51.704;5.146;2023-06-22T01:49:07;261.27;;;248.60;;
55483;SDS011;41345;51.704;5.146;2023-06-22T01:54:08;215.77;;;205.00;;
55483;SDS011;41345;51.704;5.146;2023-06-22T01:59:19;239.32;;;227.68;;
55483;SDS011;41345;51.704;5.146;2023-06-22T02:04:24;287.73;;;273.42;;
55483;SDS011;41345;51.704;5.146;2023-06-22T02:09:26;257.67;;;245.23;;
55483;SDS011;41345;51.704;5.146;2023-06-22T02:14:29;256.52;;;244.10;;
55483;SDS011;41345;51.704;5.146;2023-06-22T02:19:29;228.53;;;217.23;;
55483;SDS011;41345;51.704;5.146;2023-06-22T02:24:33;312.90;;;298.08;;
55483;SDS011;41345;51.704;5.146;2023-06-22T02:29:33;326.87;;;311.40;;
55483;SDS011;41345;51.704;5.146;2023-06-22T02:34:34;336.27;;;320.63;;
55483;SDS011;41345;51.704;5.146;2023-06-22T02:39:36;305.85;;;291.58;;
55483;SDS011;41345;51.704;5.146;2023-06-22T02:44:37;305.00;;;290.65;;
55483;SDS011;41345;51.704;5.146;2023-06-22T02:49:37;271.73;;;258.85;;
55483;SDS011;41345;51.704;5.146;2023-06-22T02:54:38;302.98;;;288.88;;
55483;SDS011;41345;51.704;5.146;2023-06-22T02:59:38;346.35;;;329.52;;
55483;SDS011;41345;51.704;5.146;2023-06-22T03:04:40;342.25;;;326.42;;
55483;SDS011;41345;51.704;5.146;2023-06-22T03:09:41;364.95;;;346.95;;
55483;SDS011;41345;51.704;5.146;2023-06-22T03:14:43;317.00;;;301.25;;
55483;SDS011;41345;51.704;5.146;2023-06-22T03:19:43;340.13;;;323.98;;
55483;SDS011;41345;51.704;5.146;2023-06-22T03:24:43;372.58;;;353.75;;
55483;SDS011;41345;51.704;5.146;2023-06-22T03:29:44;338.38;;;321.98;;
55483;SDS011;41345;51.704;5.146;2023-06-22T03:34:45;289.67;;;275.10;;
55483;SDS011;41345;51.704;5.146;2023-06-22T03:39:48;293.92;;;279.42;;
55483;SDS011;41345;51.704;5.146;2023-06-22T03:44:48;315.70;;;300.05;;
55483;SDS011;41345;51.704;5.146;2023-06-22T03:49:49;277.55;;;264.10;;
55483;SDS011;41345;51.704;5.146;2023-06-22T03:54:49;309.55;;;294.45;;
55483;SDS011;41345;51.704;5.146;2023-06-22T03:59:49;332.58;;;315.65;;
55483;SDS011;41345;51.704;5.146;2023-06-22T04:04:50;350.10;;;332.23;;
55483;SDS011;41345;51.704;5.146;2023-06-22T04:09:50;343.45;;;325.70;;
55483;SDS011;41345;51.704;5.146;2023-06-22T04:14:50;344.65;;;326.90;;
55483;SDS011;41345;51.704;5.146;2023-06-22T04:19:51;321.55;;;304.85;;
55483;SDS011;41345;51.704;5.146;2023-06-22T04:24:51;341.48;;;323.73;;
55483;SDS011;41345;51.704;5.146;2023-06-22T04:29:52;339.85;;;322.45;;
55483;SDS011;41345;51.704;5.146;2023-06-22T04:34:53;295.35;;;280.05;;
55483;SDS011;41345;51.704;5.146;2023-06-22T04:39:53;288.05;;;273.85;;
55483;SDS011;41345;51.704;5.146;2023-06-22T04:44:53;306.17;;;290.67;;
55483;SDS011;41345;51.704;5.146;2023-06-22T04:49:54;307.83;;;292.48;;
55483;SDS011;41345;51.704;5.146;2023-06-22T04:54:54;311.17;;;295.23;;
55483;SDS011;41345;51.704;5.146;2023-06-22T04:59:58;311.33;;;295.47;;
55483;SDS011;41345;51.704;5.146;2023-06-22T05:05:11;226.18;;;214.63;;
55483;SDS011;41345;51.704;5.146;2023-06-22T05:10:13;209.98;;;199.13;;
55483;SDS011;41345;51.704;5.146;2023-06-22T05:15:14;141.50;;;133.68;;
55483;SDS011;41345;51.704;5.146;2023-06-22T05:20:16;157.43;;;149.02;;
55483;SDS011;41345;51.704;5.146;2023-06-22T05:25:18;192.18;;;181.88;;
55483;SDS011;41345;51.704;5.146;2023-06-22T05:30:18;152.88;;;144.65;;
55483;SDS011;41345;51.704;5.146;2023-06-22T05:35:18;127.35;;;120.65;;
55483;SDS011;41345;51.704;5.146;2023-06-22T05:40:19;99.32;;;94.13;;
55483;SDS011;41345;51.704;5.146;2023-06-22T05:45:19;76.50;;;72.43;;
55483;SDS011;41345;51.704;5.146;2023-06-22T05:50:19;87.82;;;83.03;;
55483;SDS011;41345;51.704;5.146;2023-06-22T05:55:20;60.20;;;56.60;;
55483;SDS011;41345;51.704;5.146;2023-06-22T06:00:20;69.83;;;65.60;;
55483;SDS011;41345;51.704;5.146;2023-06-22T06:05:22;76.05;;;71.63;;
55483;SDS011;41345;51.704;5.146;2023-06-22T06:10:23;62.42;;;58.55;;
55483;SDS011;41345;51.704;5.146;2023-06-22T06:15:24;76.20;;;71.93;;
55483;SDS011;41345;51.704;5.146;2023-06-22T06:20:25;95.10;;;89.78;;
55483;SDS011;41345;51.704;5.146;2023-06-22T06:25:25;94.38;;;88.70;;
55483;SDS011;41345;51.704;5.146;2023-06-22T06:30:26;102.82;;;97.03;;
55483;SDS011;41345;51.704;5.146;2023-06-22T06:35:26;99.63;;;93.50;;
55483;SDS011;41345;51.704;5.146;2023-06-22T06:40:26;104.93;;;98.70;;
55483;SDS011;41345;51.704;5.146;2023-06-22T06:45:27;123.10;;;116.10;;
55483;SDS011;41345;51.704;5.146;2023-06-22T06:50:28;78.78;;;73.80;;
55483;SDS011;41345;51.704;5.146;2023-06-22T06:55:29;110.22;;;103.90;;
55483;SDS011;41345;51.704;5.146;2023-06-22T07:05:32;83.43;;;77.82;;
55483;SDS011;41345;51.704;5.146;2023-06-22T07:10:33;77.37;;;72.37;;
55483;SDS011;41345;51.704;5.146;2023-06-22T07:15:33;69.10;;;64.50;;
55483;SDS011;41345;51.704;5.146;2023-06-22T07:20:33;77.55;;;72.53;;
55483;SDS011;41345;51.704;5.146;2023-06-22T07:25:34;103.85;;;97.68;;
55483;SDS011;41345;51.704;5.146;2023-06-22T07:30:35;93.82;;;87.80;;
55483;SDS011;41345;51.704;5.146;2023-06-22T07:35:35;91.60;;;85.85;;
55483;SDS011;41345;51.704;5.146;2023-06-22T07:40:36;102.57;;;96.28;;
55483;SDS011;41345;51.704;5.146;2023-06-22T07:45:37;96.10;;;90.28;;
55483;SDS011;41345;51.704;5.146;2023-06-22T07:50:37;99.63;;;93.47;;
55483;SDS011;41345;51.704;5.146;2023-06-22T07:55:38;83.22;;;77.82;;
55483;SDS011;41345;51.704;5.146;2023-06-22T08:00:38;68.43;;;63.40;;
55483;SDS011;41345;51.704;5.146;2023-06-22T08:05:39;58.80;;;54.67;;
55483;SDS011;41345;51.704;5.146;2023-06-22T08:10:39;52.15;;;48.25;;
55483;SDS011;41345;51.704;5.146;2023-06-22T08:15:41;56.50;;;52.58;;
55483;SDS011;41345;51.704;5.146;2023-06-22T08:20:41;39.20;;;35.78;;
55483;SDS011;41345;51.704;5.146;2023-06-22T08:25:41;38.63;;;35.42;;
55483;SDS011;41345;51.704;5.146;2023-06-22T08:30:42;47.28;;;43.80;;
55483;SDS011;41345;51.704;5.146;2023-06-22T08:35:42;40.58;;;37.00;;
55483;SDS011;41345;51.704;5.146;2023-06-22T08:40:42;37.67;;;34.58;;
55483;SDS011;41345;51.704;5.146;2023-06-22T08:45:43;37.25;;;33.63;;
55483;SDS011;41345;51.704;5.146;2023-06-22T08:50:43;39.55;;;36.08;;
55483;SDS011;41345;51.704;5.146;2023-06-22T08:55:43;46.30;;;42.70;;
55483;SDS011;41345;51.704;5.146;2023-06-22T09:00:44;46.38;;;42.78;;
55483;SDS011;41345;51.704;5.146;2023-06-22T09:05:44;38.97;;;35.63;;
55483;SDS011;41345;51.704;5.146;2023-06-22T09:10:44;38.72;;;35.60;;
55483;SDS011;41345;51.704;5.146;2023-06-22T09:15:45;40.63;;;37.13;;
55483;SDS011;41345;51.704;5.146;2023-06-22T09:20:45;48.37;;;44.43;;
55483;SDS011;41345;51.704;5.146;2023-06-22T09:25:45;45.63;;;42.07;;
55483;SDS011;41345;51.704;5.146;2023-06-22T09:30:47;33.58;;;30.67;;
55483;SDS011;41345;51.704;5.146;2023-06-22T09:35:48;33.60;;;30.80;;
55483;SDS011;41345;51.704;5.146;2023-06-22T09:40:49;28.67;;;25.95;;
55483;SDS011;41345;51.704;5.146;2023-06-22T09:45:49;39.77;;;36.67;;
55483;SDS011;41345;51.704;5.146;2023-06-22T09:50:50;32.58;;;29.88;;
55483;SDS011;41345;51.704;5.146;2023-06-22T09:55:50;27.17;;;24.58;;
55483;SDS011;41345;51.704;5.146;2023-06-22T10:00:51;32.65;;;29.95;;
55483;SDS011;41345;51.704;5.146;2023-06-22T10:05:51;30.10;;;27.50;;
55483;SDS011;41345;51.704;5.146;2023-06-22T10:10:51;25.92;;;23.42;;
55483;SDS011;41345;51.704;5.146;2023-06-22T10:15:52;27.50;;;24.83;;
55483;SDS011;41345;51.704;5.146;2023-06-22T10:20:53;26.83;;;24.30;;
55483;SDS011;41345;51.704;5.146;2023-06-22T10:25:53;18.13;;;16.02;;
55483;SDS011;41345;51.704;5.146;2023-06-22T10:30:54;19.40;;;17.57;;
55483;SDS011;41345;51.704;5.146;2023-06-22T10:35:54;20.70;;;18.80;;
55483;SDS011;41345;51.704;5.146;2023-06-22T10:40:55;16.58;;;14.88;;
55483;SDS011;41345;51.704;5.146;2023-06-22T10:45:55;18.23;;;14.52;;
55483;SDS011;41345;51.704;5.146;2023-06-22T10:50:55;17.50;;;14.60;;
55483;SDS011;41345;51.704;5.146;2023-06-22T10:55:56;18.43;;;16.50;;
55483;SDS011;41345;51.704;5.146;2023-06-22T11:00:56;19.13;;;16.00;;
55483;SDS011;41345;51.704;5.146;2023-06-22T11:05:56;17.00;;;15.18;;
55483;SDS011;41345;51.704;5.146;2023-06-22T11:10:57;18.92;;;17.02;;
55483;SDS011;41345;51.704;5.146;2023-06-22T11:15:57;18.65;;;16.52;;
55483;SDS011;41345;51.704;5.146;2023-06-22T11:20:57;20.50;;;18.58;;
55483;SDS011;41345;51.704;5.146;2023-06-22T11:25:58;16.83;;;15.13;;
55483;SDS011;41345;51.704;5.146;2023-06-22T11:30:58;22.45;;;20.33;;
55483;SDS011;41345;51.704;5.146;2023-06-22T11:35:58;20.20;;;18.17;;
55483;SDS011;41345;51.704;5.146;2023-06-22T11:41:00;19.02;;;17.35;;
55483;SDS011;41345;51.704;5.146;2023-06-22T11:46:03;32.50;;;30.20;;
55483;SDS011;41345;51.704;5.146;2023-06-22T11:51:04;42.35;;;39.55;;
55483;SDS011;41345;51.704;5.146;2023-06-22T11:56:06;32.45;;;29.85;;
55483;SDS011;41345;51.704;5.146;2023-06-22T12:01:06;30.23;;;27.70;;
55483;SDS011;41345;51.704;5.146;2023-06-22T12:06:07;38.53;;;35.92;;
55483;SDS011;41345;51.704;5.146;2023-06-22T12:11:07;19.63;;;17.80;;
55483;SDS011;41345;51.704;5.146;2023-06-22T12:16:07;25.48;;;23.45;;
55483;SDS011;41345;51.704;5.146;2023-06-22T12:21:07;30.42;;;28.23;;
55483;SDS011;41345;51.704;5.146;2023-06-22T12:26:08;48.45;;;45.13;;
55483;SDS011;41345;51.704;5.146;2023-06-22T12:31:08;59.47;;;55.55;;
55483;SDS011;41345;51.704;5.146;2023-06-22T12:36:08;73.32;;;69.32;;
55483;SDS011;41345;51.704;5.146;2023-06-22T12:41:08;112.43;;;106.53;;
55483;SDS011;41345;51.704;5.146;2023-06-22T12:46:09;173.63;;;164.83;;
55483;SDS011;41345;51.704;5.146;2023-06-22T12:51:09;222.57;;;211.65;;
55483;SDS011;41345;51.704;5.146;2023-06-22T12:56:09;217.65;;;206.82;;
55483;SDS011;41345;51.704;5.146;2023-06-22T13:01:10;321.65;;;305.85;;
55483;SDS011;41345;51.704;5.146;2023-06-22T13:06:10;388.77;;;366.03;;
55483;SDS011;41345;51.704;5.146;2023-06-22T13:11:11;392.87;;;368.17;;
55483;SDS011;41345;51.704;5.146;2023-06-22T13:16:11;392.67;;;367.52;;
55483;SDS011;41345;51.704;5.146;2023-06-22T13:21:12;399.60;;;372.65;;
55483;SDS011;41345;51.704;5.146;2023-06-22T13:26:12;411.50;;;384.25;;
55483;SDS011;41345;51.704;5.146;2023-06-22T13:31:12;433.33;;;402.30;;
55483;SDS011;41345;51.704;5.146;2023-06-22T13:36:13;468.00;;;433.23;;
55483;SDS011;41345;51.704;5.146;2023-06-22T13:41:13;460.57;;;426.60;;
55483;SDS011;41345;51.704;5.146;2023-06-22T13:46:13;473.98;;;437.38;;
55483;SDS011;41345;51.704;5.146;2023-06-22T13:51:14;477.08;;;438.83;;
55483;SDS011;41345;51.704;5.146;2023-06-22T13:56:14;475.67;;;437.37;;
55483;SDS011;41345;51.704;5.146;2023-06-22T14:01:14;484.03;;;445.87;;
55483;SDS011;41345;51.704;5.146;2023-06-22T14:06:15;492.38;;;453.20;;
55483;SDS011;41345;51.704;5.146;2023-06-22T14:11:15;476.07;;;436.47;;
55483;SDS011;41345;51.704;5.146;2023-06-22T14:16:15;485.27;;;445.73;;
55483;SDS011;41345;51.704;5.146;2023-06-22T14:21:16;468.17;;;430.63;;
55483;SDS011;41345;51.704;5.146;2023-06-22T14:26:16;483.00;;;445.60;;
55483;SDS011;41345;51.704;5.146;2023-06-22T14:31:19;484.00;;;446.35;;
55483;SDS011;41345;51.704;5.146;2023-06-22T14:36:20;492.40;;;453.67;;
55483;SDS011;41345;51.704;5.146;2023-06-22T14:41:20;478.27;;;441.13;;
55483;SDS011;41345;51.704;5.146;2023-06-22T14:46:21;491.85;;;453.25;;
55483;SDS011;41345;51.704;5.146;2023-06-22T14:51:21;488.17;;;450.17;;
55483;SDS011;41345;51.704;5.146;2023-06-22T14:56:21;499.65;;;460.27;;
55483;SDS011;41345;51.704;5.146;2023-06-22T15:01:22;505.35;;;463.80;;
55483;SDS011;41345;51.704;5.146;2023-06-22T15:06:22;501.45;;;460.25;;
55483;SDS011;41345;51.704;5.146;2023-06-22T15:11:22;507.03;;;465.90;;
55483;SDS011;41345;51.704;5.146;2023-06-22T15:16:23;511.00;;;468.20;;
55483;SDS011;41345;51.704;5.146;2023-06-22T15:21:23;482.13;;;441.40;;
55483;SDS011;41345;51.704;5.146;2023-06-22T15:26:23;488.57;;;446.90;;
55483;SDS011;41345;51.704;5.146;2023-06-22T15:31:26;499.65;;;457.45;;
55483;SDS011;41345;51.704;5.146;2023-06-22T15:36:26;517.35;;;473.60;;
55483;SDS011;41345;51.704;5.146;2023-06-22T15:41:26;524.33;;;480.00;;
55483;SDS011;41345;51.704;5.146;2023-06-22T15:46:28;513.72;;;470.58;;
55483;SDS011;41345;51.704;5.146;2023-06-22T15:51:28;514.47;;;472.17;;
55483;SDS011;41345;51.704;5.146;2023-06-22T15:56:29;521.97;;;477.95;;
55483;SDS011;41345;51.704;5.146;2023-06-22T16:01:30;517.15;;;474.30;;
55483;SDS011;41345;51.704;5.146;2023-06-22T16:06:30;499.73;;;458.70;;
55483;SDS011;41345;51.704;5.146;2023-06-22T16:11:30;470.77;;;430.70;;
55483;SDS011;41345;51.704;5.146;2023-06-22T16:16:31;504.27;;;460.98;;
55483;SDS011;41345;51.704;5.146;2023-06-22T16:21:31;501.00;;;458.52;;
55483;SDS011;41345;51.704;5.146;2023-06-22T16:26:37;485.98;;;443.90;;
55483;SDS011;41345;51.704;5.146;2023-06-22T16:31:38;482.15;;;442.05;;
55483;SDS011;41345;51.704;5.146;2023-06-22T16:36:38;471.83;;;434.13;;
55483;SDS011;41345;51.704;5.146;2023-06-22T16:41:38;414.53;;;377.37;;
55483;SDS011;41345;51.704;5.146;2023-06-22T16:46:39;419.42;;;380.52;;
55483;SDS011;41345;51.704;5.146;2023-06-22T16:51:40;430.52;;;389.95;;
55483;SDS011;41345;51.704;5.146;2023-06-22T16:56:40;435.13;;;393.30;;
55483;SDS011;41345;51.704;5.146;2023-06-22T17:01:54;443.73;;;400.95;;
55483;SDS011;41345;51.704;5.146;2023-06-22T17:07:08;444.38;;;402.48;;
55483;SDS011;41345;51.704;5.146;2023-06-22T17:12:09;428.92;;;388.55;;
55483;SDS011;41345;51.704;5.146;2023-06-22T17:17:15;439.13;;;399.52;;
55483;SDS011;41345;51.704;5.146;2023-06-22T17:22:15;436.27;;;397.52;;
55483;SDS011;41345;51.704;5.146;2023-06-22T17:27:25;426.45;;;390.80;;
55483;SDS011;41345;51.704;5.146;2023-06-22T17:32:26;401.33;;;366.98;;
55483;SDS011;41345;51.704;5.146;2023-06-22T17:37:33;403.25;;;371.05;;
55483;SDS011;41345;51.704;5.146;2023-06-22T17:42:34;401.38;;;368.60;;
55483;SDS011;41345;51.704;5.146;2023-06-22T17:47:34;414.60;;;381.38;;
55483;SDS011;41345;51.704;5.146;2023-06-22T17:52:34;396.57;;;363.47;;
55483;SDS011;41345;51.704;5.146;2023-06-22T17:57:37;444.33;;;406.92;;
55483;SDS011;41345;51.704;5.146;2023-06-22T18:02:41;411.05;;;374.40;;
55483;SDS011;41345;51.704;5.146;2023-06-22T18:07:44;447.15;;;408.83;;
55483;SDS011;41345;51.704;5.146;2023-06-22T18:12:45;460.38;;;422.15;;
55483;SDS011;41345;51.704;5.146;2023-06-22T18:17:46;462.58;;;424.98;;
55483;SDS011;41345;51.704;5.146;2023-06-22T18:22:47;464.38;;;425.55;;
55483;SDS011;41345;51.704;5.146;2023-06-22T18:27:48;472.08;;;431.73;;
55483;SDS011;41345;51.704;5.146;2023-06-22T18:32:48;472.08;;;432.05;;
55483;SDS011;41345;51.704;5.146;2023-06-22T18:37:49;458.65;;;419.27;;
55483;SDS011;41345;51.704;5.146;2023-06-22T18:42:50;500.42;;;460.27;;
55483;SDS011;41345;51.704;5.146;2023-06-22T18:53:03;489.42;;;451.77;;
55483;SDS011;41345;51.704;5.146;2023-06-22T18:58:14;490.50;;;452.75;;
55483;SDS011;41345;51.704;5.146;2023-06-22T19:03:31;491.98;;;454.50;;
55483;SDS011;41345;51.704;5.146;2023-06-22T19:09:17;484.02;;;445.88;;
55483;SDS011;41345;51.704;5.146;2023-06-22T19:13:52;493.30;;;454.60;;
55483;SDS011;41345;51.704;5.146;2023-06-22T19:18:53;486.83;;;448.60;;
55483;SDS011;41345;51.704;5.146;2023-06-22T19:23:55;493.00;;;454.95;;
55483;SDS011;41345;51.704;5.146;2023-06-22T19:28:55;485.40;;;447.30;;
55483;SDS011;41345;51.704;5.146;2023-06-22T19:34:00;492.55;;;454.15;;
55483;SDS011;41345;51.704;5.146;2023-06-22T19:39:01;482.40;;;445.05;;
55483;SDS011;41345;51.704;5.146;2023-06-22T19:44:02;485.05;;;447.60;;
55483;SDS011;41345;51.704;5.146;2023-06-22T19:49:03;489.30;;;451.60;;
55483;SDS011;41345;51.704;5.146;2023-06-22T19:54:05;481.83;;;445.43;;
55483;SDS011;41345;51.704;5.146;2023-06-22T19:59:08;489.92;;;452.35;;
55483;SDS011;41345;51.704;5.146;2023-06-22T20:04:08;475.47;;;441.27;;
55483;SDS011;41345;51.704;5.146;2023-06-22T20:09:09;467.57;;;435.20;;
55483;SDS011;41345;51.704;5.146;2023-06-22T20:19:13;435.10;;;409.55;;
55483;SDS011;41345;51.704;5.146;2023-06-22T20:24:16;383.80;;;362.92;;
55483;SDS011;41345;51.704;5.146;2023-06-22T20:29:30;347.98;;;329.33;;
55483;SDS011;41345;51.704;5.146;2023-06-22T20:34:34;452.40;;;426.10;;
55483;SDS011;41345;51.704;5.146;2023-06-22T20:44:35;343.50;;;325.40;;
55483;SDS011;41345;51.704;5.146;2023-06-22T20:49:35;346.73;;;329.23;;
55483;SDS011;41345;51.704;5.146;2023-06-22T20:54:37;382.85;;;363.50;;
55483;SDS011;41345;51.704;5.146;2023-06-22T20:59:37;337.03;;;320.83;;
55483;SDS011;41345;51.704;5.146;2023-06-22T21:04:38;256.40;;;244.07;;
55483;SDS011;41345;51.704;5.146;2023-06-22T21:09:41;249.77;;;238.57;;
55483;SDS011;41345;51.704;5.146;2023-06-22T21:14:41;225.60;;;215.10;;
55483;SDS011;41345;51.704;5.146;2023-06-22T21:19:41;243.23;;;232.03;;
55483;SDS011;41345;51.704;5.146;2023-06-22T21:24:42;252.75;;;240.85;;
55483;SDS011;41345;51.704;5.146;2023-06-22T21:29:42;241.63;;;230.23;;
55483;SDS011;41345;51.704;5.146;2023-06-22T21:34:43;195.18;;;186.00;;
55483;SDS011;41345;51.704;5.146;2023-06-22T21:39:43;211.00;;;200.80;;
55483;SDS011;41345;51.704;5.146;2023-06-22T21:44:47;169.52;;;161.13;;
55483;SDS011;41345;51.704;5.146;2023-06-22T21:49:47;201.80;;;191.80;;
55483;SDS011;41345;51.704;5.146;2023-06-22T21:54:48;209.50;;;199.48;;
55483;SDS011;41345;51.704;5.146;2023-06-22T21:59:49;252.82;;;240.95;;
55483;SDS011;41345;51.704;5.146;2023-06-22T22:04:49;216.83;;;206.63;;
55483;SDS011;41345;51.704;5.146;2023-06-22T22:09:52;235.32;;;224.13;;
55483;SDS011;41345;51.704;5.146;2023-06-22T22:14:53;219.75;;;208.45;;
55483;SDS011;41345;51.704;5.146;2023-06-22T22:19:54;192.20;;;183.10;;
55483;SDS011;41345;51.704;5.146;2023-06-22T22:24:54;207.07;;;196.80;;
55483;SDS011;41345;51.704;5.146;2023-06-22T22:29:54;212.95;;;202.38;;
55483;SDS011;41345;51.704;5.146;2023-06-22T22:34:54;201.93;;;192.07;;
55483;SDS011;41345;51.704;5.146;2023-06-22T22:39:55;253.20;;;240.80;;
55483;SDS011;41345;51.704;5.146;2023-06-22T22:44:55;235.70;;;223.90;;
55483;SDS011;41345;51.704;5.146;2023-06-22T22:49:56;261.40;;;248.63;;
55483;SDS011;41345;51.704;5.146;2023-06-22T22:54:56;316.27;;;300.25;;
55483;SDS011;41345;51.704;5.146;2023-06-22T22:59:56;264.80;;;251.88;;
55483;SDS011;41345;51.704;5.146;2023-06-22T23:04:57;288.50;;;274.37;;
55483;SDS011;41345;51.704;5.146;2023-06-22T23:09:58;308.67;;;293.35;;
55483;SDS011;41345;51.704;5.146;2023-06-22T23:14:59;312.05;;;296.48;;
55483;SDS011;41345;51.704;5.146;2023-06-22T23:19:59;324.23;;;307.42;;
55483;SDS011;41345;51.704;5.146;2023-06-22T23:25:07;375.50;;;355.40;;
55483;SDS011;41345;51.704;5.146;2023-06-22T23:30:10;353.10;;;334.65;;
55483;SDS011;41345;51.704;5.146;2023-06-22T23:35:10;365.15;;;345.75;;
55483;SDS011;41345;51.704;5.146;2023-06-22T23:40:12;386.85;;;365.83;;
55483;SDS011;41345;51.704;5.146;2023-06-22T23:45:16;396.70;;;375.88;;
55483;SDS011;41345;51.704;5.146;2023-06-22T23:50:17;368.98;;;349.40;;
55483;SDS011;41345;51.704;5.146;2023-06-22T23:55:18;370.77;;;350.73;;
